Airfield :
LOGIN :

Register | Disclaimer

   EN    FR    IT 

 










Legend :    VFR   Marginal VFR   IFR   Intensive IFR   Very Intensive IFR
Visi :
Ceiling :
>= 8 km
>= 3000ft
5 to 8 km
1000 to 3000 ft
1500m to 5 km
500 to 1000 ft
800 to 1500m
200 to 500 ft
< 800m
< 200 ft
Symbols :   Thunderstorms  Fog  Heavy snow  Heavy precipitations  Wind > 20 kt
SIGMETs :     Misc.  Thunderstorms  Icing  Turbulence  Mountain Waves  Volcanic Ashes







- Airport Elevation : 154 ft
- IATA code : SZZ


EPSC - Szczecin Goleniow

CURRENT METAR :
  • 231500Z 14009KT 5000 BR BKN028 OVC032 M02/M04 Q1022

EXPIRED METARs :
  • 231430Z 14007KT 5000 BR FEW008 BKN029 BKN033 M02/M04 Q1022
  • 231400Z 16007KT 5000 BR FEW008 M02/M04 Q1022
  • 231330Z 14009KT 6000 FEW008 SCT010 M02/M04 Q1022
  • 231300Z 13009KT 5000 BR FEW007 M02/M05 Q1022
  • 231230Z 14008KT 6000 FEW008 M02/M05 Q1022

TAF TAF EPSC
Valid from the 23 at 12:00 until the 24 at 12:00 UTC


231130Z 2312/2412 14008KT 6000 BKN018
BECMG 2316/2318 3000 BR BKN010
TEMPO 2318/2323 1400 -SNRA BKN002
PROB40
TEMPO 2318/2321 -FZDZ
TEMPO 2401/2412 0800 RADZ FG BKN001
BECMG 2401/2404 20012KT
No reported NOTAMs for that airfield.



MET'MAP, your aeronautical weather chart ! - Copyright ORBIFLY December 2007 - Disclaimer

ORBIFLY MET'MAP TEAM :

Programming & Development : Alexandra Zaïnal
Concept & Development : Baudouin d'Aumeries
Co-Development & Prog : Marc-Olivier Méhu
Technical & hardware support : Manuel Goepfert

Contact : metmap@orbifly.com




SOURCES & CREDITS :

   NOAA